Time;durP1;ratioP1;P1;durP2;ratioP2;P2;SDS_P1;SDS_P2;PMS_P1;PMS_P2;Temp;Humidity;BMP_temperature;BMP_pressure;BME280_temperature;BME280_humidity;BME280_pressure;Samples;Min_cycle;Max_cycle;Signal;HPM_P1;HPM_P2
2022/07/31 00:04:45;;;;;;;3.35;1.63;;;;;;;16.42;78.50;101109.91;10586890;28;20047;-80
2022/07/31 00:09:47;;;;;;;2.13;1.25;;;;;;;16.35;78.66;101115.06;10616534;28;20056;-79
2022/07/31 00:14:49;;;;;;;3.53;1.20;;;;;;;16.35;78.97;101106.75;10609849;28;20055;-79
2022/07/31 00:19:52;;;;;;;1.90;1.27;;;;;;;16.36;78.83;101105.59;10573857;28;20058;-81
2022/07/31 00:24:54;;;;;;;2.92;1.20;;;;;;;16.48;78.48;101119.72;10581202;28;20044;-72
2022/07/31 00:29:56;;;;;;;1.27;1.15;;;;;;;16.51;78.14;101121.91;10588214;28;20059;-73
2022/07/31 00:34:58;;;;;;;1.40;1.17;;;;;;;16.49;78.33;101124.19;10602247;28;20129;-73
2022/07/31 00:40:01;;;;;;;1.38;1.20;;;;;;;16.55;78.07;101122.94;10579327;28;20032;-73
2022/07/31 00:45:03;;;;;;;2.33;1.33;;;;;;;16.44;78.44;101132.56;10607486;28;20150;-73
2022/07/31 00:50:06;;;;;;;1.90;1.25;;;;;;;16.51;78.73;101126.63;10581600;28;20055;-73
2022/07/31 00:55:08;;;;;;;2.58;1.42;;;;;;;16.58;78.31;101127.84;10609350;28;20056;-73
2022/07/31 01:00:12;;;;;;;2.15;1.50;;;;;;;16.64;78.38;101124.97;10587426;28;20046;-73
2022/07/31 01:05:17;;;;;;;1.90;1.45;;;;;;;16.69;78.07;101127.66;10583405;28;20035;-73
2022/07/31 01:10:37;;;;;;;1.98;1.50;;;;;;;16.76;77.73;101130.81;10573129;28;20039;-74
2022/07/31 01:15:41;;;;;;;1.35;1.25;;;;;;;16.77;78.01;101140.78;10577098;28;20062;-73
2022/07/31 01:20:44;;;;;;;4.32;1.10;;;;;;;16.87;77.97;101137.81;10557117;28;20052;-72
2022/07/31 01:26:01;;;;;;;2.67;1.38;;;;;;;16.66;78.29;101123.53;10551737;28;20055;-73
2022/07/31 01:31:21;;;;;;;1.10;1.00;;;;;;;16.60;78.33;101119.22;10573718;28;20044;-73
2022/07/31 01:36:24;;;;;;;1.80;1.10;;;;;;;16.71;78.57;101126.22;10556362;28;20043;-73
2022/07/31 01:41:29;;;;;;;1.67;1.08;;;;;;;16.81;78.13;101134.31;10570038;28;20634;-73
2022/07/31 01:46:33;;;;;;;2.58;1.33;;;;;;;16.70;78.61;101135.66;10568479;28;20043;-73
2022/07/31 01:51:37;;;;;;;1.38;1.05;;;;;;;16.50;78.69;101133.31;10573155;28;20040;-72
2022/07/31 01:56:41;;;;;;;1.83;0.95;;;;;;;16.47;79.34;101126.41;10584798;28;20424;-72
2022/07/31 02:01:44;;;;;;;2.17;1.00;;;;;;;16.38;79.70;101122.72;10571680;28;20059;-72
2022/07/31 02:06:51;;;;;;;2.90;1.10;;;;;;;16.49;79.74;101124.19;10552013;28;20039;-72
2022/07/31 02:11:54;;;;;;;1.83;1.20;;;;;;;16.33;79.92;101120.06;10576979;28;20051;-72
2022/07/31 02:16:58;;;;;;;1.73;1.35;;;;;;;16.43;80.34;101130.94;10549047;28;20055;-72
2022/07/31 02:22:14;;;;;;;1.13;1.02;;;;;;;16.34;80.79;101127.25;10583677;28;20047;-72
2022/07/31 02:27:17;;;;;;;1.95;1.10;;;;;;;16.37;81.15;101129.41;10592215;28;20402;-72
2022/07/31 02:32:20;;;;;;;3.72;1.20;;;;;;;16.52;80.36;101133.81;10577244;28;20059;-72
2022/07/31 02:37:23;;;;;;;2.45;1.30;;;;;;;16.48;80.52;101128.03;10590732;28;20051;-72
2022/07/31 02:42:26;;;;;;;0.95;0.93;;;;;;;16.47;80.52;101120.03;10548140;28;20054;-72
2022/07/31 02:47:29;;;;;;;0.75;0.75;;;;;;;16.63;79.99;101128.84;10563387;28;20417;-72
2022/07/31 02:52:34;;;;;;;1.90;0.95;;;;;;;16.69;79.51;101127.66;10541634;28;20047;-73
2022/07/31 02:57:36;;;;;;;1.23;0.88;;;;;;;16.83;78.78;101139.53;10573422;28;20055;-72
2022/07/31 03:02:39;;;;;;;1.48;0.80;;;;;;;16.94;77.75;101140.13;10586515;28;20043;-72
2022/07/31 03:07:43;;;;;;;1.60;0.93;;;;;;;16.97;77.49;101142.28;10566879;28;21928;-73
2022/07/31 03:12:48;;;;;;;3.42;1.38;;;;;;;16.98;76.57;101138.38;10564466;28;20047;-73
2022/07/31 03:17:51;;;;;;;1.48;0.95;;;;;;;17.04;76.39;101135.19;10573327;28;20047;-73
2022/07/31 03:23:01;;;;;;;1.13;1.00;;;;;;;16.98;76.34;101139.19;10558743;28;20040;-73
2022/07/31 03:28:03;;;;;;;2.42;0.90;;;;;;;17.06;76.07;101132.91;10575225;28;20051;-73
2022/07/31 03:33:06;;;;;;;3.17;1.10;;;;;;;17.16;76.32;101129.88;10595687;28;20047;-73
2022/07/31 03:38:12;;;;;;;1.07;0.67;;;;;;;17.25;76.14;101137.47;10576555;28;20038;-73
2022/07/31 03:43:20;;;;;;;1.40;1.00;;;;;;;17.36;75.65;101141.66;10580604;28;20051;-73
2022/07/31 03:48:23;;;;;;;1.55;1.13;;;;;;;17.37;75.52;101143.28;10575206;28;20048;-73
2022/07/31 03:53:25;;;;;;;2.22;0.98;;;;;;;17.33;75.54;101142.25;10559370;28;20039;-73
2022/07/31 03:58:28;;;;;;;1.15;1.00;;;;;;;17.29;76.24;101146.81;10577995;28;20059;-73
2022/07/31 04:03:31;;;;;;;1.70;1.17;;;;;;;17.35;76.00;101145.53;10583041;28;20394;-73
2022/07/31 04:08:52;;;;;;;1.77;1.00;;;;;;;17.34;76.56;101153.03;10581650;28;20031;-73
2022/07/31 04:13:55;;;;;;;1.13;1.02;;;;;;;17.22;77.13;101149.22;10593585;28;20047;-73
2022/07/31 04:18:57;;;;;;;2.85;1.10;;;;;;;17.08;77.64;101169.47;10553822;28;20038;-73
2022/07/31 04:24:00;;;;;;;1.20;1.10;;;;;;;16.99;78.06;101151.91;10571479;28;20391;-72
2022/07/31 04:29:22;;;;;;;1.35;1.02;;;;;;;16.86;79.04;101166.66;10600604;28;20555;-73
2022/07/31 04:34:25;;;;;;;1.83;1.48;;;;;;;16.88;78.62;101150.53;10550597;28;20047;-72
2022/07/31 04:39:28;;;;;;;1.40;1.20;;;;;;;17.08;78.25;101165.88;10569995;28;20035;-73
2022/07/31 04:44:31;;;;;;;1.30;1.10;;;;;;;17.21;78.12;101161.44;10579067;27;20044;-74
2022/07/31 04:49:34;;;;;;;2.92;1.35;;;;;;;17.33;77.71;101168.03;10543161;28;20048;-72
2022/07/31 04:54:38;;;;;;;1.58;1.10;;;;;;;17.43;77.20;101178.91;10585071;28;20046;-72
2022/07/31 04:59:43;;;;;;;1.60;1.40;;;;;;;17.36;76.79;101178.53;10590289;28;20036;-72
2022/07/31 05:04:45;;;;;;;2.10;1.25;;;;;;;17.05;78.17;101185.91;10586937;28;20042;-72
2022/07/31 05:09:47;;;;;;;4.00;1.60;;;;;;;16.76;79.41;101195.41;10614652;28;20048;-72
2022/07/31 05:14:50;;;;;;;2.42;1.40;;;;;;;16.74;79.94;101192.13;10596655;28;20055;-72
2022/07/31 05:19:53;;;;;;;2.22;1.20;;;;;;;16.74;80.45;101192.13;10580109;28;20044;-72
2022/07/31 05:25:14;;;;;;;2.90;1.30;;;;;;;16.61;81.63;101192.91;10614586;28;20661;-72
2022/07/31 05:30:18;;;;;;;1.73;1.10;;;;;;;16.49;81.44;101190.66;10596154;28;20048;-72
2022/07/31 05:35:20;;;;;;;2.10;1.52;;;;;;;16.50;82.67;101189.53;10596034;28;20040;-72
2022/07/31 05:40:23;;;;;;;1.83;1.40;;;;;;;16.39;83.26;101177.00;10565652;28;20039;-72
2022/07/31 05:45:46;;;;;;;2.85;1.40;;;;;;;16.28;84.57;101178.31;10519383;28;20047;-72
2022/07/31 05:50:50;;;;;;;6.30;1.20;;;;;;;16.36;84.56;101185.09;10536920;28;20044;-72
2022/07/31 05:55:52;;;;;;;3.10;1.10;;;;;;;16.51;84.13;101191.16;10553127;28;20047;-72
2022/07/31 06:01:07;;;;;;;1.08;0.98;;;;;;;16.62;83.06;101185.41;10538753;28;20036;-72
2022/07/31 06:06:10;;;;;;;1.80;1.15;;;;;;;16.69;81.95;101183.91;10582161;28;20043;-72
2022/07/31 06:11:13;;;;;;;0.95;0.85;;;;;;;16.75;80.34;101177.13;10592924;28;20052;-72
2022/07/31 06:16:15;;;;;;;1.45;1.10;;;;;;;16.32;79.79;101173.00;10593605;28;20042;-72
2022/07/31 06:21:18;;;;;;;1.13;0.82;;;;;;;16.53;80.46;101186.13;10579808;28;20670;-72
2022/07/31 06:26:20;;;;;;;1.60;0.98;;;;;;;16.69;80.39;101191.41;10576225;28;20486;-72
2022/07/31 06:31:22;;;;;;;1.73;0.82;;;;;;;16.76;80.25;101191.81;10591793;28;20056;-72
2022/07/31 06:36:28;;;;;;;0.95;0.73;;;;;;;16.59;81.12;101184.91;10583167;28;20048;-72
2022/07/31 06:41:47;;;;;;;1.23;1.00;;;;;;;16.43;81.77;101180.78;10583457;28;20040;-73
2022/07/31 06:47:05;;;;;;;1.00;0.82;;;;;;;16.50;82.45;101191.47;10563046;28;20054;-73
2022/07/31 06:52:30;;;;;;;1.30;0.70;;;;;;;16.90;81.95;101195.38;10591324;28;20043;-73
2022/07/31 06:57:33;;;;;;;2.97;0.90;;;;;;;16.98;81.96;101191.88;10569410;28;20043;-73
2022/07/31 07:02:36;;;;;;;1.95;1.45;;;;;;;17.10;82.20;101188.56;10562039;28;20055;-72
2022/07/31 07:07:38;;;;;;;2.60;0.82;;;;;;;17.30;80.61;101188.09;10560192;28;20047;-73
2022/07/31 07:12:44;;;;;;;2.72;1.27;;;;;;;17.34;80.45;101188.28;10545311;28;20048;-72
2022/07/31 07:17:46;;;;;;;2.08;1.27;;;;;;;17.28;80.38;101184.00;10572850;28;20051;-72
2022/07/31 07:22:53;;;;;;;2.40;1.00;;;;;;;17.45;79.89;101189.69;10595335;28;20043;-72
2022/07/31 07:28:09;;;;;;;1.57;0.97;;;;;;;17.32;80.05;101191.38;10572514;28;20472;-72
2022/07/31 07:33:12;;;;;;;1.88;1.10;;;;;;;17.49;80.29;101185.97;10593073;28;21163;-72
2022/07/31 07:38:14;;;;;;;3.58;1.38;;;;;;;17.62;79.52;101197.34;10541679;28;20047;-72
2022/07/31 07:43:18;;;;;;;2.47;1.30;;;;;;;17.62;78.84;101195.38;10565136;28;20055;-72
2022/07/31 07:48:21;;;;;;;2.08;1.10;;;;;;;17.56;78.95;101193.88;10573658;28;20489;-72
2022/07/31 07:53:48;;;;;;;1.42;0.90;;;;;;;17.56;77.78;101190.28;10557973;28;20039;-72
2022/07/31 07:59:29;;;;;;;3.03;1.00;;;;;;;17.70;77.31;101196.59;10601228;28;20051;-72
2022/07/31 08:04:49;;;;;;;0.77;0.68;;;;;;;17.77;76.34;101197.81;10595666;28;20532;-72
2022/07/31 08:09:52;;;;;;;0.95;0.90;;;;;;;17.92;76.52;101198.56;10557470;28;20044;-72
2022/07/31 08:15:11;;;;;;;1.80;0.90;;;;;;;18.03;75.59;101199.94;10586396;28;20127;-72
2022/07/31 08:20:32;;;;;;;1.90;1.25;;;;;;;18.01;74.96;101203.03;10579491;28;20036;-72
2022/07/31 08:25:34;;;;;;;1.95;0.95;;;;;;;18.04;74.77;101207.94;10558695;28;20521;-72
2022/07/31 08:30:38;;;;;;;0.88;0.70;;;;;;;18.09;75.15;101201.44;10555817;28;20059;-72
2022/07/31 08:35:40;;;;;;;1.48;0.80;;;;;;;18.14;74.74;101200.50;10564456;28;20043;-72
2022/07/31 08:40:43;;;;;;;1.40;0.80;;;;;;;18.11;74.06;101198.34;10556158;28;20043;-72
2022/07/31 08:45:48;;;;;;;1.33;1.00;;;;;;;18.12;73.92;101197.22;10592732;28;20043;-72
2022/07/31 08:51:02;;;;;;;0.70;0.70;;;;;;;18.14;73.60;101204.09;10580728;28;20055;-72
2022/07/31 08:56:37;;;;;;;2.10;1.00;;;;;;;18.41;72.15;101211.44;10558875;28;20056;-72
2022/07/31 09:01:40;;;;;;;1.35;1.20;;;;;;;18.56;70.64;101207.38;10562693;28;20422;-72
2022/07/31 09:06:42;;;;;;;1.88;0.80;;;;;;;19.06;69.77;101207.88;10597174;28;20051;-72
2022/07/31 09:11:47;;;;;;;1.45;1.10;;;;;;;19.40;67.95;101209.06;10556450;28;20046;-72
2022/07/31 09:17:33;;;;;;;1.55;0.90;;;;;;;19.73;66.20;101212.22;10560410;28;20035;-72
2022/07/31 09:22:35;;;;;;;1.23;0.88;;;;;;;20.15;63.56;101216.09;10561069;28;20168;-71
2022/07/31 09:27:39;;;;;;;0.77;0.77;;;;;;;20.43;62.94;101205.34;10560961;28;20059;-71
2022/07/31 09:32:42;;;;;;;2.15;1.20;;;;;;;20.58;61.70;101209.56;10562896;28;20052;-73
2022/07/31 09:37:50;;;;;;;1.05;0.70;;;;;;;20.62;61.06;101218.88;10545368;28;20047;-72
2022/07/31 09:43:28;;;;;;;0.77;0.77;;;;;;;20.44;60.43;101223.72;10456946;28;20066;-70
2022/07/31 09:48:32;;;;;;;3.55;0.82;;;;;;;20.27;60.80;101232.09;10559590;28;20047;-70
2022/07/31 09:53:56;;;;;;;0.88;0.80;;;;;;;20.33;60.68;101228.00;10536685;28;20051;-72
2022/07/31 09:59:22;;;;;;;1.45;1.17;;;;;;;20.30;60.41;101217.50;10577495;28;20042;-72
2022/07/31 10:04:24;;;;;;;1.65;1.20;;;;;;;20.13;59.23;101216.44;10562478;28;20062;-73
2022/07/31 10:09:27;;;;;;;1.08;0.75;;;;;;;19.95;60.51;101223.16;10545157;28;20048;-73
2022/07/31 10:14:46;;;;;;;2.25;1.23;;;;;;;20.07;60.82;101225.28;10563041;28;20421;-72
2022/07/31 10:19:50;;;;;;;2.60;1.10;;;;;;;20.11;60.12;101223.44;10565487;28;20036;-71
2022/07/31 10:25:00;;;;;;;1.88;1.35;;;;;;;20.09;61.27;101229.34;10582565;28;20044;-71
2022/07/31 10:30:05;;;;;;;1.13;0.80;;;;;;;20.07;61.21;101214.94;10573986;28;20401;-71
2022/07/31 10:35:08;;;;;;;2.13;1.35;;;;;;;19.99;62.21;101210.22;10591790;28;20051;-74
2022/07/31 10:40:57;;;;;;;1.60;1.20;;;;;;;19.81;62.41;101209.44;10556969;28;20043;-72
2022/07/31 10:46:00;;;;;;;2.47;1.10;;;;;;;19.80;62.04;101202.22;10542967;28;20040;-73
2022/07/31 10:51:27;;;;;;;2.42;1.05;;;;;;;19.74;62.35;101208.28;10546095;28;21779;-74
2022/07/31 10:56:42;;;;;;;1.83;0.90;;;;;;;19.70;61.02;101224.00;10538742;28;20035;-73
2022/07/31 11:02:10;;;;;;;2.92;1.20;;;;;;;19.66;60.82;101211.91;10581814;28;20044;-73
2022/07/31 11:07:59;;;;;;;1.67;1.08;;;;;;;19.64;59.18;101214.19;10572680;28;20039;-73
2022/07/31 11:13:21;;;;;;;1.40;1.15;;;;;;;19.68;59.24;101215.16;10564355;28;20431;-74
2022/07/31 11:18:29;;;;;;;1.98;1.40;;;;;;;19.75;59.46;101216.31;10551856;28;20101;-74
2022/07/31 11:23:40;;;;;;;1.63;1.08;;;;;;;19.87;59.39;101210.06;10577273;28;20044;-74
2022/07/31 11:28:43;;;;;;;0.77;0.73;;;;;;;19.93;59.35;101211.53;10607095;28;20047;-73
2022/07/31 11:33:46;;;;;;;2.17;0.80;;;;;;;19.96;60.00;101205.31;10577330;28;20039;-74
2022/07/31 11:38:50;;;;;;;1.55;0.90;;;;;;;19.98;60.47;101199.41;10566743;28;20040;-73
2022/07/31 11:43:56;;;;;;;1.52;0.90;;;;;;;20.06;59.29;101193.00;10612590;28;20047;-74
2022/07/31 11:49:00;;;;;;;0.75;0.75;;;;;;;20.03;59.62;101197.25;10585491;28;20043;-75
2022/07/31 11:54:02;;;;;;;1.25;0.73;;;;;;;20.14;59.15;101181.84;10561467;28;20539;-75
2022/07/31 11:59:04;;;;;;;1.45;1.05;;;;;;;20.13;58.53;101193.28;10557412;28;20046;-76
2022/07/31 12:04:07;;;;;;;2.08;0.85;;;;;;;20.13;58.27;101187.72;10597880;28;20044;-76
2022/07/31 12:09:09;;;;;;;2.20;0.88;;;;;;;20.14;57.85;101195.78;10575618;28;20047;-75
2022/07/31 12:14:12;;;;;;;1.60;1.00;;;;;;;20.16;57.30;101199.03;10596494;28;20048;-74
2022/07/31 12:19:27;;;;;;;2.58;0.90;;;;;;;20.22;57.41;101193.28;10590985;28;20039;-74
2022/07/31 12:24:29;;;;;;;1.25;0.90;;;;;;;20.05;57.57;101197.75;10601736;28;20421;-74
2022/07/31 12:29:34;;;;;;;1.60;1.20;;;;;;;20.00;59.05;101200.72;10556081;28;20048;-74
2022/07/31 12:34:41;;;;;;;2.22;1.15;;;;;;;19.98;58.15;101202.19;10585179;28;20044;-74
2022/07/31 12:39:46;;;;;;;2.33;1.20;;;;;;;19.94;57.71;101196.44;10589380;28;20042;-74
2022/07/31 12:44:50;;;;;;;1.45;1.00;;;;;;;19.94;56.94;101195.63;10573272;28;20044;-74
2022/07/31 12:49:52;;;;;;;1.85;0.93;;;;;;;20.06;57.57;101195.78;10579728;27;21304;-74
2022/07/31 12:54:56;;;;;;;1.02;1.00;;;;;;;20.18;56.74;101193.13;10580405;28;20497;-72
2022/07/31 12:59:58;;;;;;;1.33;0.82;;;;;;;20.27;57.43;101184.72;10557193;28;20032;-72
2022/07/31 13:05:00;;;;;;;1.10;1.00;;;;;;;20.23;57.34;101181.78;10591953;28;20051;-72
2022/07/31 13:10:03;;;;;;;2.58;1.10;;;;;;;20.30;58.18;101187.66;10590586;28;20048;-71
2022/07/31 13:15:05;;;;;;;1.08;0.98;;;;;;;20.34;58.51;101191.44;10575851;28;20051;-71
2022/07/31 13:20:08;;;;;;;1.05;0.95;;;;;;;20.34;58.55;101182.25;10573180;28;20066;-71
2022/07/31 13:25:11;;;;;;;1.70;0.80;;;;;;;20.27;57.01;101179.97;10580028;28;20417;-71
2022/07/31 13:30:13;;;;;;;1.70;1.10;;;;;;;20.27;57.22;101170.78;10556469;28;20466;-72
2022/07/31 13:35:17;;;;;;;1.10;1.00;;;;;;;20.27;57.20;101168.81;10571649;28;20520;-74
2022/07/31 13:41:19;;;;;;;1.17;1.08;;;;;;;20.26;56.97;101169.97;10591000;28;20041;-70
2022/07/31 13:45:43;;;;;;;1.05;1.00;;;;;;;20.25;56.41;101162.75;10607457;28;20067;-71
2022/07/31 13:50:45;;;;;;;1.45;1.05;;;;;;;20.26;55.94;101163.59;10600518;28;20055;-72
2022/07/31 13:55:47;;;;;;;1.15;1.05;;;;;;;20.28;55.51;101161.28;10584617;28;20054;-72
2022/07/31 14:00:49;;;;;;;1.23;1.13;;;;;;;20.32;55.72;101156.69;10576200;28;20039;-72
2022/07/31 14:05:53;;;;;;;2.00;1.20;;;;;;;20.39;56.03;101166.16;10597963;28;20044;-72
2022/07/31 14:10:56;;;;;;;2.40;0.93;;;;;;;20.34;54.79;101159.97;10569265;28;20520;-71
2022/07/31 14:15:58;;;;;;;2.05;1.35;;;;;;;20.16;54.18;101154.44;10604881;28;20052;-71
2022/07/31 14:21:00;;;;;;;2.03;1.30;;;;;;;20.07;54.51;101155.63;10598515;28;20630;-71
2022/07/31 14:26:04;;;;;;;1.48;0.85;;;;;;;20.01;54.10;101159.75;10608405;28;20035;-71
2022/07/31 14:31:10;;;;;;;1.00;0.90;;;;;;;19.96;53.02;101151.53;10572051;28;20074;-71
2022/07/31 14:36:12;;;;;;;1.70;1.17;;;;;;;19.92;52.71;101154.19;10612098;28;20036;-71
2022/07/31 14:41:15;;;;;;;1.00;0.90;;;;;;;19.83;52.19;101161.75;10611545;28;20044;-71
2022/07/31 14:46:17;;;;;;;1.15;1.00;;;;;;;19.82;51.95;101154.56;10594029;28;20044;-70
2022/07/31 14:51:19;;;;;;;1.13;1.00;;;;;;;19.75;51.07;101148.66;10578128;28;20417;-71
2022/07/31 14:56:22;;;;;;;1.17;0.82;;;;;;;19.73;49.82;101148.16;10611786;28;20404;-70
2022/07/31 15:01:25;;;;;;;0.90;0.80;;;;;;;19.72;49.81;101152.91;10609514;28;20097;-70
2022/07/31 15:06:28;;;;;;;1.33;0.70;;;;;;;19.72;49.26;101149.31;10583183;28;20367;-70
2022/07/31 15:11:30;;;;;;;0.95;0.73;;;;;;;19.68;49.96;101153.91;10610813;28;20051;-71
2022/07/31 15:16:32;;;;;;;2.03;1.00;;;;;;;19.65;50.19;101147.03;10611278;28;20044;-70
2022/07/31 15:21:35;;;;;;;2.38;1.42;;;;;;;19.64;51.58;101148.19;10577191;28;20051;-70
2022/07/31 15:26:39;;;;;;;1.92;1.05;;;;;;;19.68;52.20;101148.34;10619317;28;20046;-70
2022/07/31 15:31:42;;;;;;;1.30;1.20;;;;;;;19.66;52.21;101143.13;10615398;28;20046;-70
2022/07/31 15:36:45;;;;;;;1.80;1.13;;;;;;;19.62;53.51;101153.28;10575999;28;20047;-70
2022/07/31 15:41:48;;;;;;;2.83;1.08;;;;;;;19.63;54.16;101152.13;10599771;28;20418;-71
2022/07/31 15:46:50;;;;;;;1.38;1.27;;;;;;;19.70;53.26;101157.19;10591398;28;20531;-71
2022/07/31 15:51:52;;;;;;;0.80;0.70;;;;;;;19.72;54.42;101152.91;10598230;27;20048;-71
2022/07/31 15:56:55;;;;;;;1.75;1.00;;;;;;;19.68;55.09;101154.72;10579746;28;20401;-71
2022/07/31 16:01:57;;;;;;;1.67;1.13;;;;;;;19.66;54.97;101159.81;10584782;28;20044;-71
2022/07/31 16:07:01;;;;;;;1.92;1.10;;;;;;;19.64;55.56;101166.88;10587446;28;20448;-71
2022/07/31 16:12:04;;;;;;;2.63;1.20;;;;;;;19.62;55.18;101166.38;10584960;28;20044;-71
2022/07/31 16:17:06;;;;;;;1.67;1.08;;;;;;;19.56;55.77;101166.53;10595265;28;20044;-71
2022/07/31 16:22:09;;;;;;;1.73;1.10;;;;;;;19.53;56.07;101163.56;10576796;28;20048;-71
2022/07/31 16:27:11;;;;;;;1.17;0.98;;;;;;;19.44;55.67;101160.81;10578641;28;20453;-71
2022/07/31 16:32:14;;;;;;;1.52;1.10;;;;;;;19.43;55.85;101163.88;10589793;28;20409;-71
2022/07/31 16:37:16;;;;;;;1.60;0.95;;;;;;;19.46;55.20;101166.03;10615842;28;20135;-71
2022/07/31 16:42:19;;;;;;;1.02;0.88;;;;;;;19.42;55.09;101163.06;10596100;28;20039;-71
2022/07/31 16:47:22;;;;;;;4.03;0.88;;;;;;;19.43;55.02;101169.44;10595429;28;20035;-71
2022/07/31 16:52:24;;;;;;;0.88;0.68;;;;;;;19.39;54.57;101158.16;10585131;28;20154;-71
2022/07/31 16:57:27;;;;;;;1.88;0.80;;;;;;;19.40;54.92;101150.63;10590746;28;20043;-71
2022/07/31 17:02:29;;;;;;;1.13;1.00;;;;;;;19.53;54.39;101141.28;10615332;28;20043;-71
2022/07/31 17:07:34;;;;;;;1.30;1.00;;;;;;;19.60;54.65;101136.06;10562359;28;20056;-71
2022/07/31 17:12:36;;;;;;;2.08;0.90;;;;;;;19.52;54.03;101134.91;10572929;28;20058;-71
2022/07/31 17:17:39;;;;;;;2.67;1.10;;;;;;;19.55;54.09;101139.03;10590610;28;20061;-71
2022/07/31 17:22:41;;;;;;;1.60;1.00;;;;;;;19.58;53.96;101144.75;10582170;28;20040;-71
2022/07/31 17:27:44;;;;;;;1.33;0.90;;;;;;;19.53;53.84;101136.53;10611005;28;20447;-71
2022/07/31 17:32:46;;;;;;;1.70;1.00;;;;;;;19.49;53.80;101140.31;10578361;28;20059;-71
2022/07/31 17:37:49;;;;;;;1.42;1.15;;;;;;;19.49;53.77;101145.88;10595701;28;20463;-71
2022/07/31 17:42:51;;;;;;;2.40;1.30;;;;;;;19.46;54.22;101155.72;10612778;28;20170;-71
2022/07/31 17:47:53;;;;;;;1.60;1.40;;;;;;;19.41;53.82;101150.28;10613260;28;20058;-71
2022/07/31 17:52:55;;;;;;;2.22;1.15;;;;;;;19.40;53.88;101168.16;10577990;28;20052;-71
2022/07/31 17:57:57;;;;;;;3.67;1.63;;;;;;;19.47;53.93;101165.69;10574579;28;20063;-71
2022/07/31 18:03:00;;;;;;;3.88;1.75;;;;;;;19.39;54.28;101172.06;10556469;28;20043;-71
2022/07/31 18:08:03;;;;;;;2.95;1.50;;;;;;;19.45;53.96;101168.00;10612933;28;20058;-71
2022/07/31 18:13:05;;;;;;;3.80;1.90;;;;;;;19.45;54.16;101158.84;10593823;28;20048;-71
2022/07/31 18:18:07;;;;;;;3.85;1.95;;;;;;;19.42;54.04;101178.94;10610000;28;20062;-71
2022/07/31 18:23:10;;;;;;;3.42;2.45;;;;;;;19.39;54.16;101193.53;10600511;28;20040;-72
2022/07/31 18:28:12;;;;;;;8.75;2.28;;;;;;;19.41;54.07;101188.44;10589795;28;20055;-71
2022/07/31 18:33:16;;;;;;;4.82;2.97;;;;;;;19.39;53.90;101193.53;10593127;28;20028;-71
2022/07/31 18:38:18;;;;;;;5.32;2.63;;;;;;;19.39;53.33;101185.16;10601973;28;20063;-72
2022/07/31 18:43:20;;;;;;;5.18;3.30;;;;;;;19.32;53.60;101185.66;10574396;28;20043;-71
2022/07/31 18:48:23;;;;;;;12.45;5.03;;;;;;;19.29;54.36;101186.34;10601512;28;20066;-71
2022/07/31 18:53:26;;;;;;;8.07;3.72;;;;;;;19.27;54.30;101194.19;10580002;28;20055;-71
2022/07/31 18:58:28;;;;;;;9.20;4.18;;;;;;;19.31;53.66;101194.34;10601298;28;20044;-71
2022/07/31 19:03:30;;;;;;;9.70;3.70;;;;;;;19.31;54.30;101186.00;10607004;28;20035;-71
2022/07/31 19:08:33;;;;;;;8.43;3.50;;;;;;;19.26;53.92;101181.38;10606933;28;20047;-71
2022/07/31 19:13:35;;;;;;;6.88;3.67;;;;;;;19.26;54.19;101175.81;10607047;28;20039;-71
2022/07/31 19:18:39;;;;;;;8.52;4.07;;;;;;;19.31;53.54;101178.47;10591560;28;20055;-71
2022/07/31 19:23:43;;;;;;;6.60;3.35;;;;;;;19.35;53.50;101181.41;10596619;28;20051;-72
2022/07/31 19:28:46;;;;;;;10.07;3.95;;;;;;;19.39;53.46;101185.16;10571055;28;20512;-72
2022/07/31 19:33:49;;;;;;;7.95;4.10;;;;;;;19.24;54.40;101189.25;10598935;28;20040;-70
2022/07/31 19:38:51;;;;;;;8.68;3.88;;;;;;;19.22;54.21;101194.31;10583343;28;20040;-71
2022/07/31 19:43:54;;;;;;;6.75;3.72;;;;;;;19.18;54.32;101190.56;10609741;28;20044;-70
2022/07/31 19:48:57;;;;;;;7.43;4.15;;;;;;;19.18;54.63;101191.38;10598934;28;20040;-70
2022/07/31 19:53:59;;;;;;;7.90;3.80;;;;;;;19.15;54.42;101180.09;10573427;27;20036;-70
2022/07/31 19:59:02;;;;;;;5.82;3.15;;;;;;;19.03;54.04;101182.69;10612217;27;20420;-70
2022/07/31 20:04:05;;;;;;;4.78;2.70;;;;;;;19.05;53.65;101174.84;10611220;28;20051;-72
2022/07/31 20:09:07;;;;;;;6.28;2.90;;;;;;;19.09;53.77;101164.69;10594776;28;20048;-71
2022/07/31 20:14:10;;;;;;;4.53;2.90;;;;;;;19.08;53.53;101174.19;10576626;28;20056;-71
2022/07/31 20:19:14;;;;;;;5.95;2.97;;;;;;;19.05;54.20;101158.97;10615769;28;20051;-71
2022/07/31 20:24:16;;;;;;;4.95;2.40;;;;;;;18.85;54.12;101163.19;10605959;28;20047;-72
2022/07/31 20:29:22;;;;;;;4.05;2.58;;;;;;;18.68;54.22;101165.94;10607094;28;20528;-71
2022/07/31 20:34:24;;;;;;;8.38;4.60;;;;;;;18.59;54.38;101174.22;10577486;28;20425;-71
2022/07/31 20:39:27;;;;;;;5.05;2.80;;;;;;;18.48;54.54;101166.50;10595496;28;20691;-71
2022/07/31 20:44:29;;;;;;;8.07;3.63;;;;;;;18.48;55.64;101172.06;10586081;28;20036;-71
2022/07/31 20:49:31;;;;;;;7.90;4.18;;;;;;;18.39;55.76;101181.16;10569084;28;20054;-71
2022/07/31 20:54:33;;;;;;;10.43;4.93;;;;;;;18.40;56.77;101176.44;10595746;28;20040;-71
2022/07/31 20:59:36;;;;;;;8.57;4.18;;;;;;;18.46;57.15;101175.16;10564273;28;20044;-71
2022/07/31 21:04:38;;;;;;;12.43;5.03;;;;;;;18.51;57.53;101175.00;10596418;28;20048;-71
2022/07/31 21:09:41;;;;;;;7.82;3.85;;;;;;;18.41;57.41;101166.97;10602345;28;20044;-71
2022/07/31 21:14:44;;;;;;;7.25;2.95;;;;;;;18.29;56.92;101163.97;10597769;28;20417;-72
2022/07/31 21:19:46;;;;;;;5.03;2.35;;;;;;;18.14;56.97;101167.97;10588798;28;20414;-70
2022/07/31 21:24:48;;;;;;;2.83;1.92;;;;;;;18.01;56.94;101164.16;10574961;28;20052;-71
2022/07/31 21:29:51;;;;;;;4.00;1.92;;;;;;;17.96;57.25;101161.50;10587494;28;20044;-71
2022/07/31 21:34:54;;;;;;;3.63;2.17;;;;;;;17.89;57.02;101161.16;10555855;28;20047;-71
2022/07/31 21:39:56;;;;;;;6.03;2.90;;;;;;;17.85;57.21;101159.31;10588638;28;20028;-71
2022/07/31 21:44:59;;;;;;;3.55;2.10;;;;;;;17.78;57.31;101160.59;10591692;28;20497;-71
2022/07/31 21:50:06;;;;;;;4.97;2.95;;;;;;;17.74;57.72;101164.31;10584306;28;20031;-72
2022/07/31 21:55:08;;;;;;;5.95;2.40;;;;;;;17.73;58.22;101163.50;10578858;28;20043;-71
2022/07/31 22:00:11;;;;;;;6.68;3.30;;;;;;;17.82;58.25;101171.88;10599950;28;20074;-71
2022/07/31 22:10:35;;;;;;;5.57;2.92;;;;;;;17.80;58.88;101165.81;10601592;28;20044;-72
2022/07/31 22:15:38;;;;;;;8.73;4.15;;;;;;;17.89;59.48;101168.66;10598533;28;20035;-71
2022/07/31 22:20:40;;;;;;;5.57;3.17;;;;;;;18.01;59.30;101163.31;10598742;28;20552;-71
2022/07/31 22:25:44;;;;;;;8.40;3.55;;;;;;;17.91;59.56;101166.38;10571694;28;20039;-72
2022/07/31 22:30:47;;;;;;;11.70;3.17;;;;;;;18.02;59.44;101165.78;10576684;28;20550;-72
2022/07/31 22:35:53;;;;;;;5.18;2.85;;;;;;;17.95;59.92;101162.66;10582691;28;20048;-72
2022/07/31 22:40:58;;;;;;;6.20;2.75;;;;;;;17.77;60.14;101160.91;10592230;28;20043;-72
2022/07/31 22:46:02;;;;;;;8.73;3.13;;;;;;;17.63;60.49;101166.50;10605390;28;20051;-72
2022/07/31 22:51:05;;;;;;;5.35;2.72;;;;;;;17.49;61.06;101165.72;10567432;28;20052;-71
2022/07/31 22:56:07;;;;;;;9.73;3.28;;;;;;;17.61;61.08;101166.00;10604580;28;20476;-72
2022/07/31 23:01:09;;;;;;;6.15;3.05;;;;;;;17.73;60.64;101162.69;10606058;28;20058;-71
2022/07/31 23:06:12;;;;;;;4.53;2.92;;;;;;;17.75;61.34;101152.91;10604734;28;20394;-72
2022/07/31 23:11:14;;;;;;;5.88;3.05;;;;;;;17.64;61.38;101159.81;10572873;28;20035;-72
2022/07/31 23:16:19;;;;;;;7.35;3.72;;;;;;;17.46;61.89;101152.50;10589258;28;20046;-71
2022/07/31 23:21:21;;;;;;;9.05;3.53;;;;;;;17.27;62.21;101155.44;10599256;28;20040;-72
2022/07/31 23:26:24;;;;;;;6.43;3.15;;;;;;;17.15;62.61;101166.25;10583087;28;20122;-72
2022/07/31 23:31:27;;;;;;;5.72;3.40;;;;;;;17.08;63.63;101163.94;10599681;28;20047;-72